Time;durP1;ratioP1;P1;durP2;ratioP2;P2;SDS_P1;SDS_P2;PMS_P1;PMS_P2;Temp;Humidity;BMP_temperature;BMP_pressure;BME280_temperature;BME280_humidity;BME280_pressure;Samples;Min_cycle;Max_cycle;Signal;HPM_P1;HPM_P2
2022/05/08 00:00:14;;;;;;;17.70;11.90;;;11.00;99.90;;;;;;5050909;28;20650;-82
2022/05/08 00:02:40;;;;;;;13.93;11.37;;;11.00;99.90;;;;;;5050964;28;20559;-81
2022/05/08 00:05:10;;;;;;;12.53;11.20;;;11.00;99.90;;;;;;5034070;28;20474;-81
2022/05/08 00:07:35;;;;;;;15.57;12.33;;;11.00;99.90;;;;;;5069106;28;20472;-81
2022/05/08 00:10:01;;;;;;;20.20;12.73;;;11.00;99.90;;;;;;5050830;28;20423;-81
2022/05/08 00:12:27;;;;;;;13.53;12.10;;;10.90;99.90;;;;;;5017720;28;20639;-81
2022/05/08 00:14:52;;;;;;;14.30;11.77;;;10.90;99.90;;;;;;5050656;28;20223;-81
2022/05/08 00:17:18;;;;;;;12.47;11.10;;;10.90;99.90;;;;;;5051185;28;20192;-82
2022/05/08 00:19:47;;;;;;;11.40;10.20;;;10.90;99.90;;;;;;5050494;28;20192;-81
2022/05/08 00:22:13;;;;;;;11.53;10.33;;;10.90;99.90;;;;;;5050646;28;20480;-81
2022/05/08 00:24:39;;;;;;;13.30;11.10;;;10.80;99.90;;;;;;5033990;28;20936;-81
2022/05/08 00:27:06;;;;;;;15.10;11.90;;;10.50;99.90;;;;;;5033724;28;20971;-81
2022/05/08 00:29:33;;;;;;;14.50;12.53;;;10.40;99.90;;;;;;5033950;28;20533;-82
2022/05/08 00:31:59;;;;;;;14.70;13.00;;;10.20;99.90;;;;;;5033984;28;20433;-81
2022/05/08 00:34:24;;;;;;;16.20;12.20;;;10.30;99.90;;;;;;5033499;28;20753;-82
2022/05/08 00:36:50;;;;;;;15.43;11.30;;;10.30;99.90;;;;;;5033500;28;20202;-82
2022/05/08 00:39:18;;;;;;;13.30;11.90;;;10.30;99.90;;;;;;5017341;28;20203;-82
2022/05/08 00:41:45;;;;;;;12.87;10.67;;;10.20;99.90;;;;;;5050155;28;20698;-82
2022/05/08 00:44:12;;;;;;;12.70;10.27;;;10.20;99.90;;;;;;5068104;28;20964;-82
2022/05/08 00:46:38;;;;;;;14.70;11.20;;;10.30;99.90;;;;;;5033786;28;20460;-81
2022/05/08 00:49:04;;;;;;;14.40;11.10;;;10.30;99.90;;;;;;5033320;28;20429;-82
2022/05/08 00:51:31;;;;;;;10.80;9.60;;;10.30;99.90;;;;;;5033565;28;21034;-81
2022/05/08 00:54:00;;;;;;;15.30;10.00;;;10.30;99.90;;;;;;5054197;28;20989;-81
2022/05/08 00:56:26;;;;;;;11.30;9.10;;;10.40;99.90;;;;;;5037588;28;20533;-81
2022/05/08 00:58:52;;;;;;;10.50;9.40;;;10.40;99.90;;;;;;5054327;28;20645;-81
2022/05/08 01:01:18;;;;;;;10.50;8.60;;;10.40;99.90;;;;;;5038096;28;20447;-81
2022/05/08 01:03:44;;;;;;;9.87;8.87;;;10.40;99.90;;;;;;5054140;28;20497;-81
2022/05/08 01:06:15;;;;;;;9.90;8.90;;;10.40;99.90;;;;;;5072548;28;20444;-82
2022/05/08 01:08:43;;;;;;;10.07;9.07;;;10.40;99.90;;;;;;5037675;28;20475;-81
2022/05/08 01:11:10;;;;;;;9.47;8.47;;;10.40;99.90;;;;;;5054400;28;20491;-81
2022/05/08 01:13:36;;;;;;;10.23;9.13;;;10.40;99.90;;;;;;5054620;28;20771;-82
2022/05/08 01:16:06;;;;;;;11.23;8.63;;;10.40;99.90;;;;;;5072537;28;20447;-82
2022/05/08 01:18:31;;;;;;;9.47;8.47;;;10.40;99.90;;;;;;5054132;28;20930;-82
2022/05/08 01:20:57;;;;;;;9.53;8.47;;;10.40;99.90;;;;;;5072494;28;20425;-82
2022/05/08 01:23:23;;;;;;;9.93;8.93;;;10.40;99.90;;;;;;5037593;28;20679;-82
2022/05/08 01:25:56;;;;;;;9.10;8.20;;;10.40;99.90;;;;;;5071859;28;20672;-81
2022/05/08 01:28:23;;;;;;;11.80;8.67;;;10.30;99.90;;;;;;5053859;28;20198;-81
2022/05/08 01:30:53;;;;;;;14.23;8.70;;;10.30;99.90;;;;;;5053861;28;20431;-82
2022/05/08 01:33:20;;;;;;;10.60;9.30;;;10.20;99.90;;;;;;5037051;28;20463;-82
2022/05/08 01:35:47;;;;;;;10.00;8.43;;;10.10;99.90;;;;;;5053695;28;20449;-82
2022/05/08 01:38:16;;;;;;;12.80;9.37;;;10.10;99.90;;;;;;5053609;28;20426;-82
2022/05/08 01:40:45;;;;;;;11.37;9.73;;;10.10;99.90;;;;;;5071825;28;20939;-82
2022/05/08 01:43:12;;;;;;;14.30;9.80;;;10.10;99.90;;;;;;5037043;28;20520;-81
2022/05/08 01:45:39;;;;;;;10.53;8.77;;;10.10;99.90;;;;;;5036437;28;20449;-82
2022/05/08 01:48:25;;;;;;;16.50;9.50;;;10.10;99.90;;;;;;5052726;28;20419;-81
2022/05/08 01:50:53;;;;;;;9.93;8.37;;;10.10;99.90;;;;;;5052891;28;20772;-81
2022/05/08 01:53:20;;;;;;;9.73;8.73;;;10.00;99.90;;;;;;5070874;28;21014;-82
2022/05/08 01:55:49;;;;;;;12.87;11.53;;;9.90;99.90;;;;;;5052919;28;20438;-82
2022/05/08 01:58:18;;;;;;;11.40;9.80;;;9.90;99.90;;;;;;5052753;28;20968;-82
2022/05/08 02:00:45;;;;;;;10.83;9.67;;;9.90;99.90;;;;;;5052679;28;20448;-82
2022/05/08 02:03:12;;;;;;;13.10;10.60;;;9.90;99.90;;;;;;5051805;28;20519;-82
2022/05/08 02:05:40;;;;;;;13.30;11.30;;;9.90;99.90;;;;;;5052443;28;20868;-81
2022/05/08 02:08:06;;;;;;;14.17;10.83;;;9.90;99.90;;;;;;5036076;28;20543;-82
2022/05/08 02:10:32;;;;;;;12.40;11.10;;;9.90;99.90;;;;;;5036306;28;20422;-82
2022/05/08 02:12:58;;;;;;;13.37;10.80;;;10.00;99.90;;;;;;5052524;28;20425;-82
2022/05/08 02:15:29;;;;;;;12.03;10.70;;;10.00;99.90;;;;;;5036427;28;20217;-82
2022/05/08 02:17:58;;;;;;;14.10;12.00;;;10.10;99.90;;;;;;5070789;28;20227;-82
2022/05/08 02:20:24;;;;;;;14.77;12.37;;;10.00;99.90;;;;;;5053168;28;20426;-82
2022/05/08 02:22:51;;;;;;;13.50;12.10;;;10.00;99.90;;;;;;5052385;28;20421;-82
2022/05/08 02:25:18;;;;;;;17.00;13.30;;;10.00;99.90;;;;;;5052188;28;20481;-81
2022/05/08 02:27:49;;;;;;;15.10;12.37;;;10.00;99.90;;;;;;5035800;28;20424;-81
2022/05/08 02:30:17;;;;;;;14.60;12.53;;;10.00;99.90;;;;;;5036169;28;20959;-81
2022/05/08 02:32:43;;;;;;;12.47;10.77;;;10.00;99.90;;;;;;5052375;28;21022;-81
2022/05/08 02:35:10;;;;;;;10.33;9.17;;;9.90;99.90;;;;;;5051983;28;20454;-81
2022/05/08 02:37:37;;;;;;;13.13;10.87;;;9.60;99.90;;;;;;5051995;28;20434;-81
2022/05/08 02:40:06;;;;;;;11.63;10.43;;;9.50;99.90;;;;;;5069886;28;20434;-81
2022/05/08 02:42:32;;;;;;;12.10;10.90;;;9.40;99.90;;;;;;5051741;28;20439;-81
2022/05/08 02:44:57;;;;;;;13.00;10.97;;;9.40;99.90;;;;;;5034998;28;20478;-81
2022/05/08 02:47:23;;;;;;;19.80;12.17;;;9.40;99.90;;;;;;5018815;28;20434;-82
2022/05/08 02:49:48;;;;;;;18.60;14.00;;;9.40;99.90;;;;;;5035081;28;20757;-82
2022/05/08 02:52:14;;;;;;;15.87;14.17;;;9.40;99.90;;;;;;5051589;28;20557;-82
2022/05/08 02:54:40;;;;;;;20.50;16.10;;;9.40;99.90;;;;;;5051625;28;20267;-81
2022/05/08 02:59:50;;;;;;;20.30;15.70;;;9.40;99.90;;;;;;5054812;28;20241;-81
2022/05/08 03:02:16;;;;;;;20.20;16.13;;;9.30;99.90;;;;;;5051447;28;20433;-81
2022/05/08 03:04:42;;;;;;;19.43;15.87;;;9.20;99.90;;;;;;5069424;28;20640;-82
2022/05/08 03:07:08;;;;;;;20.10;15.13;;;9.20;99.90;;;;;;5069595;28;20541;-81
2022/05/08 03:09:34;;;;;;;17.70;13.83;;;9.20;99.90;;;;;;5051578;28;20970;-81
2022/05/08 03:11:59;;;;;;;15.47;13.77;;;9.20;99.90;;;;;;5034751;28;20628;-81
2022/05/08 03:14:25;;;;;;;14.17;12.63;;;9.30;99.90;;;;;;5034677;28;20628;-81
2022/05/08 03:16:51;;;;;;;14.70;13.10;;;9.40;99.90;;;;;;5018281;28;20466;-81
2022/05/08 03:19:19;;;;;;;15.90;13.43;;;9.40;99.90;;;;;;5035216;28;20191;-82
2022/05/08 03:21:50;;;;;;;21.30;15.47;;;9.40;99.90;;;;;;5052138;28;20184;-82
2022/05/08 03:24:17;;;;;;;16.00;14.00;;;9.30;99.90;;;;;;5036126;28;20891;-81
2022/05/08 03:26:42;;;;;;;16.90;13.90;;;9.30;99.90;;;;;;5034986;28;20895;-82
2022/05/08 03:29:08;;;;;;;14.83;13.00;;;9.20;99.90;;;;;;5018485;28;20433;-82
2022/05/08 03:31:34;;;;;;;14.00;12.53;;;9.20;99.90;;;;;;5051652;28;20183;-82
2022/05/08 03:34:00;;;;;;;14.93;12.77;;;9.30;99.90;;;;;;5052130;28;20188;-82
2022/05/08 03:36:26;;;;;;;15.27;12.57;;;9.30;99.90;;;;;;5035476;28;20453;-82
2022/05/08 03:38:52;;;;;;;13.70;11.80;;;9.40;99.90;;;;;;5036134;28;20657;-82
2022/05/08 03:41:19;;;;;;;15.37;12.03;;;9.40;99.90;;;;;;5052359;28;20179;-82
2022/05/08 03:43:47;;;;;;;15.60;12.97;;;9.40;99.90;;;;;;5035138;28;20477;-82
2022/05/08 03:46:16;;;;;;;20.10;14.50;;;9.40;99.90;;;;;;5051126;28;20439;-81
2022/05/08 03:48:42;;;;;;;17.00;12.70;;;9.30;99.90;;;;;;5050668;28;20424;-82
2022/05/08 03:51:08;;;;;;;14.80;13.20;;;9.30;99.90;;;;;;5050724;28;20437;-82
2022/05/08 03:53:34;;;;;;;14.67;12.97;;;9.30;99.90;;;;;;5034138;28;21197;-82
2022/05/08 03:55:59;;;;;;;15.30;12.80;;;9.40;99.90;;;;;;5034089;28;20219;-82
2022/05/08 03:58:26;;;;;;;15.80;13.27;;;9.40;99.90;;;;;;5035147;28;20209;-81
2022/05/08 04:00:53;;;;;;;16.80;12.83;;;9.40;99.90;;;;;;5018893;28;20434;-83
2022/05/08 04:03:18;;;;;;;17.63;14.03;;;9.50;99.90;;;;;;5051378;28;20432;-82
2022/05/08 04:05:44;;;;;;;16.23;13.37;;;9.50;99.90;;;;;;5050734;28;20451;-83
2022/05/08 04:08:10;;;;;;;14.20;11.73;;;9.50;99.90;;;;;;5069041;28;20991;-82
2022/05/08 04:10:36;;;;;;;17.70;13.57;;;9.40;99.90;;;;;;5034385;28;20180;-82
2022/05/08 04:13:02;;;;;;;15.67;13.10;;;9.40;99.90;;;;;;5033908;28;20437;-81
2022/05/08 04:18:11;;;;;;;16.90;14.20;;;9.40;99.90;;;;;;5069369;28;20429;-82
2022/05/08 04:20:37;;;;;;;16.03;13.70;;;9.40;99.90;;;;;;5050621;28;20499;-82
2022/05/08 04:25:54;;;;;;;16.20;13.43;;;9.40;99.90;;;;;;5053370;28;20472;-83
2022/05/08 04:28:20;;;;;;;18.03;13.60;;;9.50;99.90;;;;;;5033439;28;20450;-82
2022/05/08 04:30:47;;;;;;;15.83;13.57;;;9.50;99.90;;;;;;5050228;28;20839;-83
2022/05/08 04:33:13;;;;;;;17.83;12.63;;;9.50;99.90;;;;;;5050427;28;20421;-82
2022/05/08 04:35:38;;;;;;;17.60;14.50;;;9.40;99.90;;;;;;5033477;28;20455;-82
2022/05/08 04:38:04;;;;;;;16.10;12.93;;;9.40;99.90;;;;;;5033608;28;20662;-80
2022/05/08 04:40:30;;;;;;;13.53;12.10;;;9.30;99.90;;;;;;5050308;28;20180;-82
2022/05/08 04:42:57;;;;;;;15.80;13.63;;;9.30;99.90;;;;;;5050414;28;20432;-82
2022/05/08 04:45:22;;;;;;;18.80;15.43;;;9.10;99.90;;;;;;5049905;28;20765;-82
2022/05/08 04:47:48;;;;;;;28.13;19.30;;;9.10;99.90;;;;;;5033614;28;20528;-83
2022/05/08 04:50:14;;;;;;;17.83;13.87;;;9.00;99.90;;;;;;5049728;28;20297;-82
2022/05/08 04:52:39;;;;;;;22.90;16.03;;;9.10;99.90;;;;;;5033628;28;20201;-82
2022/05/08 04:55:05;;;;;;;20.23;14.10;;;9.20;99.90;;;;;;5068192;28;20589;-82
2022/05/08 04:57:31;;;;;;;14.80;13.03;;;9.30;99.90;;;;;;5067685;28;20536;-82
2022/05/08 04:59:58;;;;;;;16.17;13.53;;;9.20;99.90;;;;;;5033943;28;20524;-81
2022/05/08 05:02:24;;;;;;;16.90;13.70;;;9.20;99.90;;;;;;5050008;28;20252;-80
2022/05/08 05:04:50;;;;;;;17.97;14.40;;;9.30;99.90;;;;;;5033302;28;20485;-80
2022/05/08 05:07:17;;;;;;;17.23;15.33;;;9.40;99.90;;;;;;5049752;28;20999;-79
2022/05/08 05:09:43;;;;;;;18.10;14.97;;;9.50;99.90;;;;;;5049767;28;20843;-80
2022/05/08 05:12:10;;;;;;;22.70;16.50;;;9.60;99.90;;;;;;5067921;28;20417;-80
2022/05/08 05:14:35;;;;;;;19.60;15.80;;;9.60;99.90;;;;;;5067552;28;20215;-80
2022/05/08 05:17:01;;;;;;;18.30;14.67;;;9.70;99.90;;;;;;5049709;28;20463;-80
2022/05/08 05:19:28;;;;;;;17.00;14.07;;;9.70;99.90;;;;;;5049542;28;20191;-80
2022/05/08 05:21:55;;;;;;;17.70;13.90;;;9.70;99.90;;;;;;5067736;28;20453;-80
2022/05/08 05:24:21;;;;;;;15.87;13.67;;;9.70;99.90;;;;;;5049376;28;20472;-80
2022/05/08 05:26:47;;;;;;;20.07;13.23;;;9.60;99.90;;;;;;5067876;28;20448;-80
2022/05/08 05:29:14;;;;;;;16.50;14.80;;;9.60;99.90;;;;;;5032841;28;20185;-79
2022/05/08 05:31:40;;;;;;;15.60;13.17;;;9.70;99.90;;;;;;5033155;28;20900;-80
2022/05/08 05:34:06;;;;;;;18.20;12.87;;;9.90;99.90;;;;;;5032645;28;20434;-80
2022/05/08 05:36:31;;;;;;;14.37;12.83;;;10.10;99.90;;;;;;5033255;28;20215;-80
2022/05/08 05:38:57;;;;;;;14.03;12.50;;;10.20;99.90;;;;;;5050901;28;20183;-80
2022/05/08 05:41:23;;;;;;;15.80;14.03;;;10.30;99.90;;;;;;5071342;28;20196;-81
2022/05/08 05:43:48;;;;;;;22.10;15.80;;;10.30;99.90;;;;;;5071273;28;20742;-80
2022/05/08 05:48:58;;;;;;;19.60;15.23;;;10.40;99.90;;;;;;5071575;28;20252;-80
2022/05/08 05:51:24;;;;;;;22.03;14.43;;;10.50;99.90;;;;;;5036339;28;20895;-82
2022/05/08 05:53:50;;;;;;;16.37;14.23;;;10.60;99.90;;;;;;5019831;28;20237;-82
2022/05/08 05:56:15;;;;;;;17.60;13.40;;;10.70;99.90;;;;;;5052697;28;20310;-81
2022/05/08 05:58:41;;;;;;;17.87;13.60;;;10.80;99.90;;;;;;5053001;28;20194;-82
2022/05/08 06:01:07;;;;;;;24.13;15.70;;;10.90;99.90;;;;;;5053083;28;20572;-83
2022/05/08 06:03:33;;;;;;;19.20;14.57;;;10.90;99.90;;;;;;5019565;28;20226;-80
2022/05/08 06:05:58;;;;;;;15.80;13.80;;;11.00;99.90;;;;;;5052613;28;20216;-83
2022/05/08 06:08:24;;;;;;;15.57;13.30;;;11.10;99.90;;;;;;5052802;28;20475;-83
2022/05/08 06:10:50;;;;;;;50.50;35.33;;;11.20;99.90;;;;;;5053027;28;20176;-83
2022/05/08 06:13:17;;;;;;;27.43;21.37;;;11.30;99.90;;;;;;5036092;28;20180;-83
2022/05/08 06:15:42;;;;;;;20.93;13.93;;;11.40;99.90;;;;;;5052793;28;20444;-82
2022/05/08 06:18:08;;;;;;;23.77;19.10;;;11.50;99.90;;;;;;5035884;28;20436;-81
2022/05/08 06:20:35;;;;;;;23.10;16.20;;;11.60;99.90;;;;;;5052949;28;20651;-82
2022/05/08 06:23:01;;;;;;;16.37;13.57;;;11.60;99.90;;;;;;5036240;28;20323;-83
2022/05/08 06:25:26;;;;;;;13.67;12.27;;;11.60;99.90;;;;;;5052660;28;20507;-82
2022/05/08 06:27:52;;;;;;;17.10;13.03;;;11.70;99.90;;;;;;5036134;28;20192;-81
2022/05/08 06:30:18;;;;;;;17.60;13.70;;;11.80;99.90;;;;;;5035721;28;20270;-82
2022/05/08 06:32:43;;;;;;;14.60;12.60;;;11.90;99.90;;;;;;5051998;28;20185;-80
2022/05/08 06:35:09;;;;;;;15.00;13.50;;;12.00;99.90;;;;;;5052077;28;20679;-81
2022/05/08 06:37:35;;;;;;;15.87;14.20;;;12.00;99.90;;;;;;5019125;28;20197;-83
2022/05/08 06:40:00;;;;;;;15.97;14.27;;;12.20;99.90;;;;;;5035794;28;20733;-83
2022/05/08 06:42:26;;;;;;;19.90;15.17;;;12.20;99.90;;;;;;5052451;28;20676;-83
2022/05/08 06:44:52;;;;;;;16.40;14.27;;;12.40;99.90;;;;;;5035414;28;20220;-83
2022/05/08 06:47:17;;;;;;;20.87;14.77;;;12.50;99.90;;;;;;5035253;28;20254;-83
2022/05/08 06:49:43;;;;;;;18.40;15.07;;;12.60;99.90;;;;;;5035073;28;20663;-83
2022/05/08 06:52:09;;;;;;;18.20;15.17;;;12.60;99.90;;;;;;5035346;28;20555;-83
2022/05/08 06:54:35;;;;;;;19.33;15.03;;;12.70;99.90;;;;;;5070042;28;20682;-82
2022/05/08 06:57:00;;;;;;;19.90;14.27;;;12.90;99.90;;;;;;5035295;28;20202;-82
2022/05/08 07:02:11;;;;;;;19.83;15.50;;;13.10;99.90;;;;;;5054981;28;20299;-83
2022/05/08 07:04:39;;;;;;;18.43;16.00;;;13.20;99.90;;;;;;5050872;28;21305;-84
2022/05/08 07:07:04;;;;;;;18.87;15.10;;;13.20;99.90;;;;;;5017599;28;20189;-84
2022/05/08 07:09:32;;;;;;;21.63;16.60;;;13.40;99.90;;;;;;5033738;28;20489;-83
2022/05/08 07:11:58;;;;;;;18.43;14.60;;;13.50;99.90;;;;;;5033930;28;20736;-83
2022/05/08 07:14:23;;;;;;;19.77;15.97;;;13.60;99.90;;;;;;5067960;28;20432;-82
2022/05/08 07:16:49;;;;;;;16.40;14.70;;;13.80;99.90;;;;;;5068184;28;20737;-81
2022/05/08 07:19:15;;;;;;;18.80;15.70;;;14.00;99.90;;;;;;5049992;28;20189;-81
2022/05/08 07:21:41;;;;;;;20.30;14.33;;;14.10;99.90;;;;;;5050107;28;20671;-82
2022/05/08 07:24:07;;;;;;;18.60;15.10;;;14.10;99.90;;;;;;5033311;28;20221;-83
2022/05/08 07:26:33;;;;;;;16.63;14.17;;;14.40;99.90;;;;;;5033189;28;20455;-82
2022/05/08 07:28:58;;;;;;;17.67;14.37;;;14.40;99.90;;;;;;5068070;28;20416;-82
2022/05/08 07:31:27;;;;;;;17.93;14.00;;;14.60;99.90;;;;;;5049639;28;20681;-82
2022/05/08 07:36:12;;;;;;;17.03;14.73;;;14.70;99.90;;;;;;5033187;28;20325;-80
2022/05/08 07:36:39;;;;;;;18.00;16.10;;;14.80;99.90;;;;;;5067435;28;20475;-82
2022/05/08 07:39:04;;;;;;;20.13;16.33;;;14.80;99.90;;;;;;5032962;28;20461;-81
2022/05/08 07:41:30;;;;;;;17.93;15.13;;;14.80;99.90;;;;;;5067700;28;20187;-81
2022/05/08 07:43:56;;;;;;;22.03;15.73;;;14.90;99.90;;;;;;5016234;28;20215;-81
2022/05/08 07:46:23;;;;;;;17.20;14.70;;;15.00;99.90;;;;;;5032781;28;20615;-81
2022/05/08 07:48:49;;;;;;;14.90;12.80;;;15.20;99.90;;;;;;5049277;28;20778;-81
2022/05/08 07:51:14;;;;;;;15.83;13.40;;;15.20;99.90;;;;;;5049215;28;20437;-81
2022/05/08 07:53:40;;;;;;;15.23;12.07;;;15.20;99.90;;;;;;5049275;28;20615;-82
2022/05/08 07:56:06;;;;;;;14.30;12.87;;;15.40;99.90;;;;;;5049091;28;20211;-83
2022/05/08 07:58:32;;;;;;;12.90;11.60;;;15.60;99.90;;;;;;5032881;28;20705;-82
2022/05/08 08:00:58;;;;;;;13.90;12.00;;;15.80;99.90;;;;;;5016733;28;20279;-84
2022/05/08 08:03:29;;;;;;;12.87;11.60;;;15.90;99.90;;;;;;5066951;28;20796;-83
2022/05/08 08:05:56;;;;;;;14.10;12.70;;;16.20;99.90;;;;;;5049246;28;20948;-82
2022/05/08 08:08:23;;;;;;;15.80;12.87;;;16.10;99.90;;;;;;5049340;28;20445;-82
2022/05/08 08:10:52;;;;;;;14.40;12.40;;;16.20;99.90;;;;;;5067919;28;20418;-82
2022/05/08 08:13:21;;;;;;;13.67;12.00;;;16.20;99.90;;;;;;5068038;28;20409;-83
2022/05/08 08:15:48;;;;;;;15.57;13.63;;;16.70;99.90;;;;;;5050555;28;20469;-82
2022/05/08 08:18:15;;;;;;;14.67;12.23;;;16.50;99.90;;;;;;5033810;28;20431;-82
2022/05/08 08:20:42;;;;;;;15.03;12.63;;;16.70;99.90;;;;;;5033080;28;20819;-83
2022/05/08 08:23:08;;;;;;;15.37;13.20;;;17.00;99.90;;;;;;5049494;28;20481;-84
2022/05/08 08:25:34;;;;;;;15.90;12.80;;;17.10;99.90;;;;;;5049821;28;20856;-84
2022/05/08 08:28:01;;;;;;;13.47;12.07;;;17.20;99.90;;;;;;5017272;28;20453;-84
2022/05/08 08:30:29;;;;;;;14.13;12.63;;;17.30;99.90;;;;;;5033951;28;20274;-84
2022/05/08 08:32:55;;;;;;;18.23;13.37;;;17.30;99.90;;;;;;5049987;28;20417;-84
2022/05/08 08:35:20;;;;;;;14.30;13.00;;;17.40;99.90;;;;;;5049663;28;20452;-84
2022/05/08 08:37:46;;;;;;;14.53;13.17;;;17.50;99.90;;;;;;5050072;28;20431;-84
2022/05/08 08:40:13;;;;;;;18.20;14.10;;;17.60;99.90;;;;;;5050188;28;20203;-84
2022/05/08 08:42:43;;;;;;;15.43;13.80;;;17.70;99.90;;;;;;5050055;28;20191;-83
2022/05/08 08:47:55;;;;;;;13.40;12.00;;;18.00;99.90;;;;;;5069164;28;20871;-80
2022/05/08 08:50:27;;;;;;;12.37;11.17;;;18.20;99.90;;;;;;5052205;28;20487;-86
2022/05/08 08:52:58;;;;;;;19.07;13.20;;;18.30;99.90;;;;;;5034703;28;20604;-82
2022/05/08 08:55:24;;;;;;;12.37;11.17;;;18.40;99.90;;;;;;5051947;28;20444;-82
2022/05/08 08:57:51;;;;;;;11.43;10.23;;;18.40;99.90;;;;;;5036619;28;20448;-89
2022/05/08 09:00:18;;;;;;;13.50;12.03;;;18.50;99.90;;;;;;5036132;28;20432;-95
2022/05/08 09:02:45;;;;;;;11.43;10.40;;;18.60;99.90;;;;;;5035712;28;20498;-89
2022/05/08 09:05:11;;;;;;;14.10;11.50;;;18.80;99.90;;;;;;5033595;28;20488;-88
2022/05/08 09:07:52;;;;;;;11.77;10.57;;;19.00;99.90;;;;;;5033881;28;20455;-87
2022/05/08 09:10:23;;;;;;;12.67;11.33;;;19.20;99.90;;;;;;5049853;28;20436;-80
2022/05/08 09:12:52;;;;;;;12.37;10.97;;;19.60;99.90;;;;;;5017319;28;21267;-80
2022/05/08 09:15:19;;;;;;;13.17;11.80;;;19.80;99.90;;;;;;5052846;28;21089;-80
2022/05/08 09:17:46;;;;;;;15.23;11.83;;;20.00;99.90;;;;;;5052927;28;20943;-83
2022/05/08 09:20:31;;;;;;;14.37;11.83;;;20.30;99.90;;;;;;5019757;28;20959;-83
2022/05/08 09:23:11;;;;;;;11.97;10.77;;;20.60;99.90;;;;;;5052774;28;20519;-82
2022/05/08 09:25:59;;;;;;;13.30;10.40;;;21.00;99.90;;;;;;5070121;28;20474;-83
2022/05/08 09:28:30;;;;;;;12.30;10.27;;;21.30;99.90;;;;;;5052396;28;20515;-84
2022/05/08 09:30:58;;;;;;;12.37;11.17;;;21.80;99.90;;;;;;5035825;28;20948;-85
2022/05/08 09:33:47;;;;;;;10.87;9.50;;;21.90;99.50;;;;;;5052228;28;20545;-83
2022/05/08 09:36:27;;;;;;;10.00;9.00;;;21.90;99.90;;;;;;5051960;28;20990;-85
2022/05/08 09:38:57;;;;;;;10.93;9.93;;;22.20;99.90;;;;;;5051896;28;20421;-86
2022/05/08 09:41:38;;;;;;;10.10;9.10;;;22.40;99.20;;;;;;5051768;28;20428;-86
2022/05/08 09:44:14;;;;;;;12.73;10.30;;;22.40;98.70;;;;;;5051912;28;20645;-88
2022/05/08 09:46:45;;;;;;;13.87;9.30;;;22.80;98.20;;;;;;5052004;28;20993;-84
2022/05/08 09:49:18;;;;;;;12.10;9.50;;;23.20;98.20;;;;;;5051847;28;20486;-80
2022/05/08 09:51:46;;;;;;;12.60;8.77;;;23.40;98.10;;;;;;5051897;28;20450;-82
2022/05/08 09:54:13;;;;;;;9.40;8.23;;;23.80;96.70;;;;;;5051733;28;20433;-82
2022/05/08 09:56:44;;;;;;;21.80;8.60;;;23.90;95.70;;;;;;5069453;28;20509;-83
2022/05/08 09:59:14;;;;;;;9.17;7.53;;;24.10;95.30;;;;;;5035173;28;20442;-84
2022/05/08 10:01:41;;;;;;;8.47;7.67;;;24.40;92.80;;;;;;5051209;28;21199;-83
2022/05/08 10:04:07;;;;;;;8.10;7.40;;;24.70;93.50;;;;;;5034668;28;20490;-88
2022/05/08 10:06:35;;;;;;;10.97;8.60;;;24.80;93.90;;;;;;5034592;28;20453;-81
2022/05/08 10:14:33;;;;;;;10.30;8.67;;;24.60;91.80;;;;;;5069749;28;20428;-82
2022/05/08 10:17:04;;;;;;;9.57;8.43;;;24.80;92.20;;;;;;5051712;28;20435;-84
2022/05/08 10:19:30;;;;;;;10.13;9.10;;;24.50;92.70;;;;;;5018721;28;20189;-83
2022/05/08 10:21:55;;;;;;;10.10;8.03;;;24.20;92.10;;;;;;5051975;28;20434;-81
2022/05/08 10:24:47;;;;;;;10.60;8.00;;;23.80;92.60;;;;;;5069439;28;20211;-82
2022/05/08 10:27:31;;;;;;;8.03;7.23;;;23.60;93.80;;;;;;5051619;28;20188;-86
2022/05/08 10:30:02;;;;;;;10.33;7.40;;;23.50;93.60;;;;;;5051284;28;20523;-88
2022/05/08 10:32:33;;;;;;;8.40;7.50;;;23.30;93.90;;;;;;5068869;28;20921;-84
2022/05/08 10:35:18;;;;;;;12.40;8.00;;;23.20;93.30;;;;;;5050936;28;20967;-89
2022/05/08 10:37:47;;;;;;;9.60;7.47;;;23.30;94.40;;;;;;5034273;28;20437;-87
2022/05/08 10:40:22;;;;;;;9.00;8.10;;;23.30;94.00;;;;;;5050747;28;20440;-86
2022/05/08 10:42:49;;;;;;;9.47;8.53;;;23.30;94.60;;;;;;5051214;28;21058;-88
2022/05/08 10:45:33;;;;;;;7.97;7.17;;;23.10;94.60;;;;;;5050808;28;20552;-83
2022/05/08 10:48:07;;;;;;;8.57;7.10;;;23.20;94.90;;;;;;5068713;28;20418;-84
2022/05/08 10:50:34;;;;;;;7.77;7.07;;;23.20;94.50;;;;;;5050208;28;20458;-83
2022/05/08 10:53:01;;;;;;;8.90;7.30;;;23.40;94.00;;;;;;5033788;28;20546;-86
2022/05/08 10:55:27;;;;;;;7.37;6.67;;;23.60;94.00;;;;;;5050193;28;20528;-87
2022/05/08 10:57:54;;;;;;;7.93;7.23;;;23.70;92.90;;;;;;5049930;28;20442;-85
2022/05/08 11:00:28;;;;;;;8.27;7.47;;;23.30;92.50;;;;;;5050042;28;20514;-83
2022/05/08 11:02:58;;;;;;;9.03;6.50;;;22.90;93.40;;;;;;5050084;28;20444;-85
2022/05/08 11:05:29;;;;;;;7.30;6.60;;;22.90;94.10;;;;;;5033191;28;20482;-85
2022/05/08 11:08:03;;;;;;;8.40;7.60;;;22.80;92.70;;;;;;5050728;28;20418;-84
2022/05/08 11:10:30;;;;;;;9.43;6.90;;;22.40;93.20;;;;;;5050262;28;20417;-84
2022/05/08 11:13:09;;;;;;;7.23;6.20;;;21.90;93.70;;;;;;5049712;28;20430;-85
2022/05/08 11:15:45;;;;;;;9.10;7.03;;;21.70;94.80;;;;;;5036312;28;20538;-81
2022/05/08 11:18:24;;;;;;;9.53;7.03;;;21.30;95.10;;;;;;5069763;28;20790;-83
2022/05/08 11:20:57;;;;;;;11.77;6.27;;;21.10;96.80;;;;;;5051510;28;20442;-84
2022/05/08 11:23:34;;;;;;;6.33;5.83;;;21.00;96.40;;;;;;5069702;28;20424;-83
2022/05/08 11:26:03;;;;;;;7.30;6.43;;;21.00;97.40;;;;;;5034478;28;20449;-82
2022/05/08 11:28:29;;;;;;;5.73;5.17;;;21.10;97.10;;;;;;5051049;28;20417;-84
2022/05/08 11:30:56;;;;;;;6.37;5.60;;;21.10;96.60;;;;;;5034577;28;20424;-83
2022/05/08 11:36:40;;;;;;;6.23;5.63;;;21.10;97.40;;;;;;5048645;28;20443;-84
2022/05/08 11:39:11;;;;;;;6.37;5.30;;;21.10;97.20;;;;;;5050875;28;20511;-83
2022/05/08 11:41:44;;;;;;;6.20;5.27;;;21.20;96.20;;;;;;5069184;28;20414;-83
2022/05/08 11:44:15;;;;;;;9.30;5.17;;;21.20;94.80;;;;;;5051552;28;20456;-84
2022/05/08 11:46:45;;;;;;;5.10;4.60;;;21.20;95.80;;;;;;5050943;28;20501;-84
2022/05/08 11:49:22;;;;;;;6.00;5.40;;;21.10;95.80;;;;;;5034836;28;20490;-84
2022/05/08 11:52:01;;;;;;;5.07;4.57;;;21.20;95.90;;;;;;5050617;28;20441;-83
2022/05/08 11:54:29;;;;;;;4.77;4.37;;;21.40;96.20;;;;;;5035418;28;20429;-83
2022/05/08 11:57:21;;;;;;;4.87;4.47;;;21.50;95.50;;;;;;5068917;28;20435;-80
2022/05/08 11:59:49;;;;;;;5.30;4.80;;;21.60;93.40;;;;;;5068674;28;20450;-82
2022/05/08 12:02:16;;;;;;;4.30;4.00;;;21.70;92.70;;;;;;5050412;28;20436;-86
2022/05/08 12:04:53;;;;;;;4.27;3.87;;;21.60;92.90;;;;;;5050363;28;20465;-86
2022/05/08 12:07:20;;;;;;;5.37;4.10;;;21.60;91.90;;;;;;5050977;28;20421;-84
2022/05/08 12:09:49;;;;;;;10.50;4.43;;;21.50;92.80;;;;;;5033825;28;20456;-81
2022/05/08 12:12:28;;;;;;;4.50;4.07;;;21.30;92.30;;;;;;5068661;28;20178;-84
2022/05/08 12:15:06;;;;;;;4.00;3.70;;;21.20;93.10;;;;;;5050190;28;20445;-83
2022/05/08 12:17:41;;;;;;;4.70;3.67;;;21.00;92.90;;;;;;5050337;28;20439;-84
2022/05/08 12:20:14;;;;;;;7.53;4.23;;;20.90;93.00;;;;;;5068483;28;20417;-84
2022/05/08 12:22:41;;;;;;;4.13;3.73;;;20.90;94.20;;;;;;5050112;28;20485;-84
2022/05/08 12:25:07;;;;;;;5.60;3.80;;;21.00;94.50;;;;;;5068204;28;20487;-85
2022/05/08 12:27:34;;;;;;;4.00;3.70;;;21.00;94.90;;;;;;5033083;28;20772;-82
2022/05/08 12:30:01;;;;;;;4.80;3.67;;;20.90;93.90;;;;;;5068313;28;20980;-81
2022/05/08 12:32:30;;;;;;;3.93;3.70;;;20.80;93.80;;;;;;5050227;28;20431;-81
2022/05/08 12:34:58;;;;;;;4.33;4.03;;;20.90;93.40;;;;;;5050118;28;20458;-81
2022/05/08 12:37:24;;;;;;;4.80;4.40;;;20.70;93.50;;;;;;5049954;28;20936;-82
2022/05/08 12:39:50;;;;;;;4.30;4.00;;;20.60;92.60;;;;;;5050255;28;20442;-83
2022/05/08 12:42:16;;;;;;;4.17;3.87;;;20.50;93.80;;;;;;5049816;28;20187;-84
2022/05/08 12:44:46;;;;;;;7.50;4.00;;;20.30;94.20;;;;;;5049987;28;20218;-83
2022/05/08 12:47:13;;;;;;;9.60;4.13;;;20.20;94.40;;;;;;5050001;28;20579;-83
2022/05/08 12:49:41;;;;;;;4.60;4.20;;;19.90;95.80;;;;;;5053557;28;20424;-84
2022/05/08 12:52:09;;;;;;;4.27;3.87;;;19.70;97.30;;;;;;5072292;28;20430;-83
2022/05/08 12:54:35;;;;;;;7.80;4.80;;;19.60;97.80;;;;;;5037468;28;20514;-82
2022/05/08 12:57:04;;;;;;;4.63;4.33;;;19.40;96.20;;;;;;5054065;28;20429;-83
2022/05/08 13:02:28;;;;;;;4.87;4.47;;;19.20;97.90;;;;;;5013491;28;20795;-82
2022/05/08 13:04:54;;;;;;;4.93;4.13;;;19.20;98.00;;;;;;5037291;28;20480;-81
2022/05/08 13:07:20;;;;;;;4.53;4.20;;;19.10;97.40;;;;;;5072564;28;20182;-81